sensor_id;sensor_type;location;lat;lon;timestamp;temperature;humidity
9223;DHT22;7557;51.698;3.942;2023-08-30T00:00:04;16.80;99.90
9223;DHT22;7557;51.698;3.942;2023-08-30T00:02:32;16.80;99.90
9223;DHT22;7557;51.698;3.942;2023-08-30T00:05:01;16.80;99.90
9223;DHT22;7557;51.698;3.942;2023-08-30T00:07:29;16.80;99.90
9223;DHT22;7557;51.698;3.942;2023-08-30T00:09:57;16.80;99.90
9223;DHT22;7557;51.698;3.942;2023-08-30T00:12:25;16.80;99.90
9223;DHT22;7557;51.698;3.942;2023-08-30T00:14:52;16.80;99.90
9223;DHT22;7557;51.698;3.942;2023-08-30T00:17:19;16.80;99.90
9223;DHT22;7557;51.698;3.942;2023-08-30T00:19:46;16.80;99.90
9223;DHT22;7557;51.698;3.942;2023-08-30T00:22:16;16.80;99.90
9223;DHT22;7557;51.698;3.942;2023-08-30T00:24:43;16.70;99.90
9223;DHT22;7557;51.698;3.942;2023-08-30T00:27:10;16.70;99.90
9223;DHT22;7557;51.698;3.942;2023-08-30T00:29:38;16.70;99.90
9223;DHT22;7557;51.698;3.942;2023-08-30T00:32:05;16.60;99.90
9223;DHT22;7557;51.698;3.942;2023-08-30T00:34:33;16.60;99.90
9223;DHT22;7557;51.698;3.942;2023-08-30T00:37:00;16.60;99.90
9223;DHT22;7557;51.698;3.942;2023-08-30T00:39:29;16.60;99.90
9223;DHT22;7557;51.698;3.942;2023-08-30T00:41:56;16.60;99.90
9223;DHT22;7557;51.698;3.942;2023-08-30T00:44:23;16.60;99.90
9223;DHT22;7557;51.698;3.942;2023-08-30T00:46:50;16.50;99.90
9223;DHT22;7557;51.698;3.942;2023-08-30T00:49:18;16.60;99.90
9223;DHT22;7557;51.698;3.942;2023-08-30T00:51:45;16.50;99.90
9223;DHT22;7557;51.698;3.942;2023-08-30T00:54:12;16.50;99.90
9223;DHT22;7557;51.698;3.942;2023-08-30T00:56:43;16.50;99.90
9223;DHT22;7557;51.698;3.942;2023-08-30T00:59:12;16.50;99.90
9223;DHT22;7557;51.698;3.942;2023-08-30T01:01:40;16.40;99.90
9223;DHT22;7557;51.698;3.942;2023-08-30T01:04:07;16.40;99.90
9223;DHT22;7557;51.698;3.942;2023-08-30T01:06:35;16.40;99.90
9223;DHT22;7557;51.698;3.942;2023-08-30T01:09:02;16.40;99.90
9223;DHT22;7557;51.698;3.942;2023-08-30T01:11:32;16.40;99.90
9223;DHT22;7557;51.698;3.942;2023-08-30T01:14:08;16.40;99.90
9223;DHT22;7557;51.698;3.942;2023-08-30T01:16:36;16.30;99.90
9223;DHT22;7557;51.698;3.942;2023-08-30T01:19:11;16.30;99.90
9223;DHT22;7557;51.698;3.942;2023-08-30T01:21:50;16.30;99.90
9223;DHT22;7557;51.698;3.942;2023-08-30T01:24:26;16.30;99.90
9223;DHT22;7557;51.698;3.942;2023-08-30T01:27:09;16.30;99.90
9223;DHT22;7557;51.698;3.942;2023-08-30T01:29:37;16.40;99.90
9223;DHT22;7557;51.698;3.942;2023-08-30T01:32:07;16.40;99.90
9223;DHT22;7557;51.698;3.942;2023-08-30T01:34:36;16.40;99.90
9223;DHT22;7557;51.698;3.942;2023-08-30T01:37:04;16.40;99.90
9223;DHT22;7557;51.698;3.942;2023-08-30T01:39:33;16.50;99.90
9223;DHT22;7557;51.698;3.942;2023-08-30T01:42:01;16.50;99.90
9223;DHT22;7557;51.698;3.942;2023-08-30T01:44:32;16.50;99.90
9223;DHT22;7557;51.698;3.942;2023-08-30T01:47:00;16.50;99.90
9223;DHT22;7557;51.698;3.942;2023-08-30T01:49:29;16.50;99.90
9223;DHT22;7557;51.698;3.942;2023-08-30T01:51:58;16.50;99.90
9223;DHT22;7557;51.698;3.942;2023-08-30T01:54:28;16.50;99.90
9223;DHT22;7557;51.698;3.942;2023-08-30T01:56:55;16.50;99.90
9223;DHT22;7557;51.698;3.942;2023-08-30T01:59:23;16.50;99.90
9223;DHT22;7557;51.698;3.942;2023-08-30T02:01:53;16.50;99.90
9223;DHT22;7557;51.698;3.942;2023-08-30T02:04:20;16.50;99.90
9223;DHT22;7557;51.698;3.942;2023-08-30T02:06:53;16.50;99.90
9223;DHT22;7557;51.698;3.942;2023-08-30T02:09:26;16.50;99.90
9223;DHT22;7557;51.698;3.942;2023-08-30T02:11:55;16.50;99.90
9223;DHT22;7557;51.698;3.942;2023-08-30T02:14:25;16.50;99.90
9223;DHT22;7557;51.698;3.942;2023-08-30T02:16:55;16.60;99.90
9223;DHT22;7557;51.698;3.942;2023-08-30T02:19:23;16.60;99.90
9223;DHT22;7557;51.698;3.942;2023-08-30T02:21:50;16.60;99.90
9223;DHT22;7557;51.698;3.942;2023-08-30T02:24:18;16.60;99.90
9223;DHT22;7557;51.698;3.942;2023-08-30T02:26:45;16.50;99.90
9223;DHT22;7557;51.698;3.942;2023-08-30T02:29:12;16.50;99.90
9223;DHT22;7557;51.698;3.942;2023-08-30T02:31:40;16.50;99.90
9223;DHT22;7557;51.698;3.942;2023-08-30T02:34:09;16.50;99.90
9223;DHT22;7557;51.698;3.942;2023-08-30T02:36:37;16.50;99.90
9223;DHT22;7557;51.698;3.942;2023-08-30T02:39:04;16.50;99.90
9223;DHT22;7557;51.698;3.942;2023-08-30T02:41:31;16.50;99.90
9223;DHT22;7557;51.698;3.942;2023-08-30T02:43:58;16.50;99.90
9223;DHT22;7557;51.698;3.942;2023-08-30T02:46:25;16.40;99.90
9223;DHT22;7557;51.698;3.942;2023-08-30T02:48:52;16.40;99.90
9223;DHT22;7557;51.698;3.942;2023-08-30T02:51:22;16.40;99.90
9223;DHT22;7557;51.698;3.942;2023-08-30T02:53:49;16.40;99.90
9223;DHT22;7557;51.698;3.942;2023-08-30T02:56:17;16.30;99.90
9223;DHT22;7557;51.698;3.942;2023-08-30T02:58:44;16.30;99.90
9223;DHT22;7557;51.698;3.942;2023-08-30T03:01:11;16.30;99.90
9223;DHT22;7557;51.698;3.942;2023-08-30T03:03:38;16.30;99.90
9223;DHT22;7557;51.698;3.942;2023-08-30T03:06:06;16.30;99.90
9223;DHT22;7557;51.698;3.942;2023-08-30T03:08:34;16.30;99.90
9223;DHT22;7557;51.698;3.942;2023-08-30T03:11:09;16.30;99.90
9223;DHT22;7557;51.698;3.942;2023-08-30T03:13:36;16.30;99.90
9223;DHT22;7557;51.698;3.942;2023-08-30T03:16:10;16.30;99.90
9223;DHT22;7557;51.698;3.942;2023-08-30T03:18:38;16.40;99.90
9223;DHT22;7557;51.698;3.942;2023-08-30T03:21:05;16.40;99.90
9223;DHT22;7557;51.698;3.942;2023-08-30T03:23:34;16.40;99.90
9223;DHT22;7557;51.698;3.942;2023-08-30T03:26:08;16.40;99.90
9223;DHT22;7557;51.698;3.942;2023-08-30T03:28:35;16.40;99.90
9223;DHT22;7557;51.698;3.942;2023-08-30T03:31:10;16.40;99.90
9223;DHT22;7557;51.698;3.942;2023-08-30T03:33:37;16.40;99.90
9223;DHT22;7557;51.698;3.942;2023-08-30T03:36:07;16.40;99.90
9223;DHT22;7557;51.698;3.942;2023-08-30T03:38:37;16.40;99.90
9223;DHT22;7557;51.698;3.942;2023-08-30T03:41:05;16.40;99.90
9223;DHT22;7557;51.698;3.942;2023-08-30T03:43:33;16.40;99.90
9223;DHT22;7557;51.698;3.942;2023-08-30T03:46:00;16.30;99.90
9223;DHT22;7557;51.698;3.942;2023-08-30T03:48:29;16.30;99.90
9223;DHT22;7557;51.698;3.942;2023-08-30T03:50:57;16.40;99.90
9223;DHT22;7557;51.698;3.942;2023-08-30T03:53:24;16.30;99.90
9223;DHT22;7557;51.698;3.942;2023-08-30T03:55:53;16.30;99.90
9223;DHT22;7557;51.698;3.942;2023-08-30T03:58:20;16.30;99.90
9223;DHT22;7557;51.698;3.942;2023-08-30T04:00:47;16.20;99.90
9223;DHT22;7557;51.698;3.942;2023-08-30T04:03:15;16.20;99.90
9223;DHT22;7557;51.698;3.942;2023-08-30T04:05:45;16.20;99.90
9223;DHT22;7557;51.698;3.942;2023-08-30T04:08:13;16.20;99.90
9223;DHT22;7557;51.698;3.942;2023-08-30T04:10:41;16.20;99.90
9223;DHT22;7557;51.698;3.942;2023-08-30T04:13:10;16.20;99.90
9223;DHT22;7557;51.698;3.942;2023-08-30T04:15:38;16.20;99.90
9223;DHT22;7557;51.698;3.942;2023-08-30T04:18:06;16.10;99.90
9223;DHT22;7557;51.698;3.942;2023-08-30T04:20:34;16.10;99.90
9223;DHT22;7557;51.698;3.942;2023-08-30T04:23:01;16.10;99.90
9223;DHT22;7557;51.698;3.942;2023-08-30T04:25:29;16.10;99.90
9223;DHT22;7557;51.698;3.942;2023-08-30T04:27:57;16.00;99.90
9223;DHT22;7557;51.698;3.942;2023-08-30T04:30:26;16.00;99.90
9223;DHT22;7557;51.698;3.942;2023-08-30T04:32:53;16.00;99.90
9223;DHT22;7557;51.698;3.942;2023-08-30T04:35:20;15.90;99.90
9223;DHT22;7557;51.698;3.942;2023-08-30T04:37:48;15.90;99.90
9223;DHT22;7557;51.698;3.942;2023-08-30T04:40:15;15.90;99.90
9223;DHT22;7557;51.698;3.942;2023-08-30T04:42:43;15.90;99.90
9223;DHT22;7557;51.698;3.942;2023-08-30T04:45:11;15.90;99.90
9223;DHT22;7557;51.698;3.942;2023-08-30T04:47:39;15.90;99.90
9223;DHT22;7557;51.698;3.942;2023-08-30T04:50:09;15.90;99.90
9223;DHT22;7557;51.698;3.942;2023-08-30T04:52:36;15.90;99.90
9223;DHT22;7557;51.698;3.942;2023-08-30T04:55:05;16.00;99.90
9223;DHT22;7557;51.698;3.942;2023-08-30T04:57:33;16.00;99.90
9223;DHT22;7557;51.698;3.942;2023-08-30T05:00:00;16.00;99.90
9223;DHT22;7557;51.698;3.942;2023-08-30T05:02:30;16.10;99.90
9223;DHT22;7557;51.698;3.942;2023-08-30T05:04:59;16.10;99.90
9223;DHT22;7557;51.698;3.942;2023-08-30T05:07:26;16.00;99.90
9223;DHT22;7557;51.698;3.942;2023-08-30T05:09:53;16.00;99.90
9223;DHT22;7557;51.698;3.942;2023-08-30T05:12:21;16.00;99.90
9223;DHT22;7557;51.698;3.942;2023-08-30T05:14:48;16.10;99.90
9223;DHT22;7557;51.698;3.942;2023-08-30T05:17:15;16.10;99.90
9223;DHT22;7557;51.698;3.942;2023-08-30T05:19:43;16.10;99.90
9223;DHT22;7557;51.698;3.942;2023-08-30T05:22:12;16.10;99.90
9223;DHT22;7557;51.698;3.942;2023-08-30T05:24:39;16.20;99.90
9223;DHT22;7557;51.698;3.942;2023-08-30T05:27:07;16.10;99.90
9223;DHT22;7557;51.698;3.942;2023-08-30T05:29:34;16.10;99.90
9223;DHT22;7557;51.698;3.942;2023-08-30T05:32:02;16.20;99.90
9223;DHT22;7557;51.698;3.942;2023-08-30T05:34:29;16.20;99.90
9223;DHT22;7557;51.698;3.942;2023-08-30T05:36:57;16.20;99.90
9223;DHT22;7557;51.698;3.942;2023-08-30T05:39:26;16.30;99.90
9223;DHT22;7557;51.698;3.942;2023-08-30T05:41:53;16.30;99.90
9223;DHT22;7557;51.698;3.942;2023-08-30T05:44:20;16.30;99.90
9223;DHT22;7557;51.698;3.942;2023-08-30T05:46:48;16.30;99.90
9223;DHT22;7557;51.698;3.942;2023-08-30T05:49:15;16.30;99.90
9223;DHT22;7557;51.698;3.942;2023-08-30T05:51:42;16.30;99.90
9223;DHT22;7557;51.698;3.942;2023-08-30T05:54:10;16.20;99.90
9223;DHT22;7557;51.698;3.942;2023-08-30T05:56:38;16.20;99.90
9223;DHT22;7557;51.698;3.942;2023-08-30T05:59:06;16.20;99.90
9223;DHT22;7557;51.698;3.942;2023-08-30T06:01:33;16.20;99.90
9223;DHT22;7557;51.698;3.942;2023-08-30T06:04:01;16.20;99.90
9223;DHT22;7557;51.698;3.942;2023-08-30T06:06:30;16.30;99.90
9223;DHT22;7557;51.698;3.942;2023-08-30T06:08:58;16.30;99.90
9223;DHT22;7557;51.698;3.942;2023-08-30T06:11:26;16.30;99.90
9223;DHT22;7557;51.698;3.942;2023-08-30T06:13:54;16.30;99.90
9223;DHT22;7557;51.698;3.942;2023-08-30T06:16:24;16.30;99.90
9223;DHT22;7557;51.698;3.942;2023-08-30T06:18:52;16.30;99.90
9223;DHT22;7557;51.698;3.942;2023-08-30T06:21:19;16.30;99.90
9223;DHT22;7557;51.698;3.942;2023-08-30T06:23:47;16.40;99.90
9223;DHT22;7557;51.698;3.942;2023-08-30T06:26:14;16.40;99.90
9223;DHT22;7557;51.698;3.942;2023-08-30T06:28:41;16.40;99.90
9223;DHT22;7557;51.698;3.942;2023-08-30T06:31:10;16.40;99.90
9223;DHT22;7557;51.698;3.942;2023-08-30T06:33:37;16.40;99.90
9223;DHT22;7557;51.698;3.942;2023-08-30T06:36:05;16.40;99.90
9223;DHT22;7557;51.698;3.942;2023-08-30T06:38:32;16.40;99.90
9223;DHT22;7557;51.698;3.942;2023-08-30T06:41:00;16.50;99.90
9223;DHT22;7557;51.698;3.942;2023-08-30T06:43:27;16.50;99.90
9223;DHT22;7557;51.698;3.942;2023-08-30T06:45:57;16.50;99.90
9223;DHT22;7557;51.698;3.942;2023-08-30T06:48:29;16.60;99.90
9223;DHT22;7557;51.698;3.942;2023-08-30T06:50:57;16.60;99.90
9223;DHT22;7557;51.698;3.942;2023-08-30T06:53:25;16.70;99.90
9223;DHT22;7557;51.698;3.942;2023-08-30T06:55:57;16.70;99.90
9223;DHT22;7557;51.698;3.942;2023-08-30T06:58:25;16.70;99.90
9223;DHT22;7557;51.698;3.942;2023-08-30T07:00:52;16.80;99.90
9223;DHT22;7557;51.698;3.942;2023-08-30T07:03:20;16.90;99.90
9223;DHT22;7557;51.698;3.942;2023-08-30T07:05:50;16.90;99.90
9223;DHT22;7557;51.698;3.942;2023-08-30T07:08:18;17.10;99.90
9223;DHT22;7557;51.698;3.942;2023-08-30T07:10:45;17.30;99.90
9223;DHT22;7557;51.698;3.942;2023-08-30T07:13:12;17.40;99.90
9223;DHT22;7557;51.698;3.942;2023-08-30T07:15:40;17.50;99.90
9223;DHT22;7557;51.698;3.942;2023-08-30T07:18:08;17.60;99.90
9223;DHT22;7557;51.698;3.942;2023-08-30T07:20:35;17.50;99.90
9223;DHT22;7557;51.698;3.942;2023-08-30T07:23:05;17.40;99.90
9223;DHT22;7557;51.698;3.942;2023-08-30T07:25:32;17.30;99.90
9223;DHT22;7557;51.698;3.942;2023-08-30T07:27:59;17.20;99.90
9223;DHT22;7557;51.698;3.942;2023-08-30T07:30:26;17.10;99.90
9223;DHT22;7557;51.698;3.942;2023-08-30T07:32:54;17.10;99.90
9223;DHT22;7557;51.698;3.942;2023-08-30T07:35:21;17.10;99.90
9223;DHT22;7557;51.698;3.942;2023-08-30T07:37:48;17.00;99.90
9223;DHT22;7557;51.698;3.942;2023-08-30T07:40:17;16.90;99.90
9223;DHT22;7557;51.698;3.942;2023-08-30T07:42:46;16.90;99.90
9223;DHT22;7557;51.698;3.942;2023-08-30T07:45:13;16.90;99.90
9223;DHT22;7557;51.698;3.942;2023-08-30T07:47:40;17.00;99.90
9223;DHT22;7557;51.698;3.942;2023-08-30T07:50:08;17.00;99.90
9223;DHT22;7557;51.698;3.942;2023-08-30T07:52:35;17.20;99.90
9223;DHT22;7557;51.698;3.942;2023-08-30T07:55:03;17.40;99.90
9223;DHT22;7557;51.698;3.942;2023-08-30T07:57:32;17.60;99.90
9223;DHT22;7557;51.698;3.942;2023-08-30T08:00:00;17.70;99.90
9223;DHT22;7557;51.698;3.942;2023-08-30T08:02:28;17.80;99.90
9223;DHT22;7557;51.698;3.942;2023-08-30T08:04:56;17.80;99.90
9223;DHT22;7557;51.698;3.942;2023-08-30T08:07:23;17.80;99.90
9223;DHT22;7557;51.698;3.942;2023-08-30T08:09:51;17.90;99.90
9223;DHT22;7557;51.698;3.942;2023-08-30T08:12:18;17.90;99.90
9223;DHT22;7557;51.698;3.942;2023-08-30T08:14:47;18.00;99.90
9223;DHT22;7557;51.698;3.942;2023-08-30T08:17:14;18.10;99.90
9223;DHT22;7557;51.698;3.942;2023-08-30T08:19:42;18.20;99.90
9223;DHT22;7557;51.698;3.942;2023-08-30T08:22:09;18.30;99.90
9223;DHT22;7557;51.698;3.942;2023-08-30T08:24:36;18.30;99.90
9223;DHT22;7557;51.698;3.942;2023-08-30T08:27:04;18.10;99.90
9223;DHT22;7557;51.698;3.942;2023-08-30T08:29:32;18.10;99.90
9223;DHT22;7557;51.698;3.942;2023-08-30T08:32:00;18.10;99.90
9223;DHT22;7557;51.698;3.942;2023-08-30T08:34:28;18.20;99.90
9223;DHT22;7557;51.698;3.942;2023-08-30T08:36:55;18.30;99.90
9223;DHT22;7557;51.698;3.942;2023-08-30T08:39:23;18.40;99.90
9223;DHT22;7557;51.698;3.942;2023-08-30T08:41:51;18.50;99.90
9223;DHT22;7557;51.698;3.942;2023-08-30T08:44:21;18.40;99.90
9223;DHT22;7557;51.698;3.942;2023-08-30T08:46:51;18.30;99.90
9223;DHT22;7557;51.698;3.942;2023-08-30T08:49:20;18.10;99.90
9223;DHT22;7557;51.698;3.942;2023-08-30T08:51:49;18.00;99.90
9223;DHT22;7557;51.698;3.942;2023-08-30T08:54:16;17.90;99.90
9223;DHT22;7557;51.698;3.942;2023-08-30T08:56:44;17.90;99.90
9223;DHT22;7557;51.698;3.942;2023-08-30T08:59:12;18.00;99.90
9223;DHT22;7557;51.698;3.942;2023-08-30T09:01:40;18.00;99.90
9223;DHT22;7557;51.698;3.942;2023-08-30T09:04:09;18.10;99.90
9223;DHT22;7557;51.698;3.942;2023-08-30T09:06:39;18.20;99.90
9223;DHT22;7557;51.698;3.942;2023-08-30T09:09:08;18.40;99.90
9223;DHT22;7557;51.698;3.942;2023-08-30T09:11:36;18.50;99.90
9223;DHT22;7557;51.698;3.942;2023-08-30T09:14:03;18.60;99.90
9223;DHT22;7557;51.698;3.942;2023-08-30T09:16:30;18.60;99.90
9223;DHT22;7557;51.698;3.942;2023-08-30T09:18:58;18.60;99.90
9223;DHT22;7557;51.698;3.942;2023-08-30T09:21:26;18.60;99.90
9223;DHT22;7557;51.698;3.942;2023-08-30T09:24:02;18.60;99.90
9223;DHT22;7557;51.698;3.942;2023-08-30T09:26:30;18.50;99.90
9223;DHT22;7557;51.698;3.942;2023-08-30T09:29:02;18.40;99.90
9223;DHT22;7557;51.698;3.942;2023-08-30T09:31:33;18.40;99.90
9223;DHT22;7557;51.698;3.942;2023-08-30T09:34:01;18.30;99.90
9223;DHT22;7557;51.698;3.942;2023-08-30T09:36:33;18.40;99.90
9223;DHT22;7557;51.698;3.942;2023-08-30T09:39:05;18.60;99.90
9223;DHT22;7557;51.698;3.942;2023-08-30T09:41:32;18.70;99.90
9223;DHT22;7557;51.698;3.942;2023-08-30T09:44:05;18.60;99.90
9223;DHT22;7557;51.698;3.942;2023-08-30T09:46:39;18.60;99.90
9223;DHT22;7557;51.698;3.942;2023-08-30T09:49:06;18.50;99.90
9223;DHT22;7557;51.698;3.942;2023-08-30T09:51:35;18.40;99.90
9223;DHT22;7557;51.698;3.942;2023-08-30T09:54:13;18.30;99.90
9223;DHT22;7557;51.698;3.942;2023-08-30T09:56:41;18.30;99.90
9223;DHT22;7557;51.698;3.942;2023-08-30T09:59:12;18.10;99.90
9223;DHT22;7557;51.698;3.942;2023-08-30T10:01:40;18.10;99.90
9223;DHT22;7557;51.698;3.942;2023-08-30T10:04:08;18.20;99.90
9223;DHT22;7557;51.698;3.942;2023-08-30T10:06:36;18.40;99.90
9223;DHT22;7557;51.698;3.942;2023-08-30T10:09:04;18.50;99.90
9223;DHT22;7557;51.698;3.942;2023-08-30T10:11:36;18.60;99.90
9223;DHT22;7557;51.698;3.942;2023-08-30T10:14:03;18.60;99.90
9223;DHT22;7557;51.698;3.942;2023-08-30T10:16:35;18.60;99.90
9223;DHT22;7557;51.698;3.942;2023-08-30T10:19:09;18.60;99.90
9223;DHT22;7557;51.698;3.942;2023-08-30T10:21:38;18.40;99.90
9223;DHT22;7557;51.698;3.942;2023-08-30T10:24:08;18.40;99.90
9223;DHT22;7557;51.698;3.942;2023-08-30T10:26:38;18.50;99.90
9223;DHT22;7557;51.698;3.942;2023-08-30T10:29:08;18.70;99.90
9223;DHT22;7557;51.698;3.942;2023-08-30T10:31:38;18.80;99.90
9223;DHT22;7557;51.698;3.942;2023-08-30T10:34:13;18.80;99.90
9223;DHT22;7557;51.698;3.942;2023-08-30T10:36:42;18.80;99.90
9223;DHT22;7557;51.698;3.942;2023-08-30T10:39:12;18.90;99.90
9223;DHT22;7557;51.698;3.942;2023-08-30T10:44:34;18.80;99.90
9223;DHT22;7557;51.698;3.942;2023-08-30T10:47:02;18.80;99.90
9223;DHT22;7557;51.698;3.942;2023-08-30T10:49:39;18.80;99.90
9223;DHT22;7557;51.698;3.942;2023-08-30T10:52:12;18.80;99.90
9223;DHT22;7557;51.698;3.942;2023-08-30T10:54:39;18.80;99.90
9223;DHT22;7557;51.698;3.942;2023-08-30T10:57:13;18.70;99.90
9223;DHT22;7557;51.698;3.942;2023-08-30T11:02:30;18.40;99.90
9223;DHT22;7557;51.698;3.942;2023-08-30T11:04:59;18.50;99.90
9223;DHT22;7557;51.698;3.942;2023-08-30T11:07:27;18.70;99.90
9223;DHT22;7557;51.698;3.942;2023-08-30T11:09:54;18.80;99.90
9223;DHT22;7557;51.698;3.942;2023-08-30T11:12:22;18.90;99.90
9223;DHT22;7557;51.698;3.942;2023-08-30T11:14:52;18.80;99.90
9223;DHT22;7557;51.698;3.942;2023-08-30T11:17:19;18.90;99.90
9223;DHT22;7557;51.698;3.942;2023-08-30T11:19:50;19.00;99.90
9223;DHT22;7557;51.698;3.942;2023-08-30T11:22:18;18.90;99.90
9223;DHT22;7557;51.698;3.942;2023-08-30T11:24:48;18.80;99.90
9223;DHT22;7557;51.698;3.942;2023-08-30T11:27:17;18.80;99.90
9223;DHT22;7557;51.698;3.942;2023-08-30T11:29:44;18.60;99.90
9223;DHT22;7557;51.698;3.942;2023-08-30T11:32:13;18.50;99.90
9223;DHT22;7557;51.698;3.942;2023-08-30T11:34:40;18.50;99.90
9223;DHT22;7557;51.698;3.942;2023-08-30T11:37:08;18.60;99.90
9223;DHT22;7557;51.698;3.942;2023-08-30T11:39:35;18.80;99.90
9223;DHT22;7557;51.698;3.942;2023-08-30T11:42:04;19.00;99.90
9223;DHT22;7557;51.698;3.942;2023-08-30T11:44:32;19.10;99.90
9223;DHT22;7557;51.698;3.942;2023-08-30T11:47:00;18.90;99.90
9223;DHT22;7557;51.698;3.942;2023-08-30T11:49:29;18.70;99.90
9223;DHT22;7557;51.698;3.942;2023-08-30T11:51:58;18.60;99.90
9223;DHT22;7557;51.698;3.942;2023-08-30T11:54:26;18.70;99.90
9223;DHT22;7557;51.698;3.942;2023-08-30T11:56:54;18.90;99.90
9223;DHT22;7557;51.698;3.942;2023-08-30T11:59:22;19.00;99.90
9223;DHT22;7557;51.698;3.942;2023-08-30T12:01:51;18.80;99.90
9223;DHT22;7557;51.698;3.942;2023-08-30T12:04:19;18.60;99.90
9223;DHT22;7557;51.698;3.942;2023-08-30T12:06:53;18.50;99.90
9223;DHT22;7557;51.698;3.942;2023-08-30T12:09:20;18.70;99.90
9223;DHT22;7557;51.698;3.942;2023-08-30T12:11:48;18.80;99.90
9223;DHT22;7557;51.698;3.942;2023-08-30T12:14:15;18.70;99.90
9223;DHT22;7557;51.698;3.942;2023-08-30T12:16:43;18.60;99.90
9223;DHT22;7557;51.698;3.942;2023-08-30T12:19:13;18.60;99.90
9223;DHT22;7557;51.698;3.942;2023-08-30T12:21:43;18.70;99.90
9223;DHT22;7557;51.698;3.942;2023-08-30T12:24:13;18.70;99.90
9223;DHT22;7557;51.698;3.942;2023-08-30T12:26:41;18.70;99.90
9223;DHT22;7557;51.698;3.942;2023-08-30T12:29:08;18.80;99.90
9223;DHT22;7557;51.698;3.942;2023-08-30T12:31:35;18.90;99.90
9223;DHT22;7557;51.698;3.942;2023-08-30T12:34:03;18.90;99.90
9223;DHT22;7557;51.698;3.942;2023-08-30T12:36:30;18.80;99.90
9223;DHT22;7557;51.698;3.942;2023-08-30T12:38:58;18.80;99.90
9223;DHT22;7557;51.698;3.942;2023-08-30T12:41:27;18.80;99.90
9223;DHT22;7557;51.698;3.942;2023-08-30T12:43:54;18.70;99.90
9223;DHT22;7557;51.698;3.942;2023-08-30T12:46:22;18.80;99.90
9223;DHT22;7557;51.698;3.942;2023-08-30T12:48:49;18.80;99.90
9223;DHT22;7557;51.698;3.942;2023-08-30T12:51:16;18.90;99.90
9223;DHT22;7557;51.698;3.942;2023-08-30T12:53:43;18.80;99.90
9223;DHT22;7557;51.698;3.942;2023-08-30T12:56:10;18.80;99.90
9223;DHT22;7557;51.698;3.942;2023-08-30T12:58:40;18.70;99.90
9223;DHT22;7557;51.698;3.942;2023-08-30T13:01:07;18.60;99.90
9223;DHT22;7557;51.698;3.942;2023-08-30T13:03:36;18.60;99.90
9223;DHT22;7557;51.698;3.942;2023-08-30T13:06:03;18.40;99.90
9223;DHT22;7557;51.698;3.942;2023-08-30T13:08:30;18.40;99.90
9223;DHT22;7557;51.698;3.942;2023-08-30T13:10:59;18.30;99.90
9223;DHT22;7557;51.698;3.942;2023-08-30T13:13:28;18.30;99.90
9223;DHT22;7557;51.698;3.942;2023-08-30T13:15:57;18.30;99.90
9223;DHT22;7557;51.698;3.942;2023-08-30T13:18:24;18.40;99.90
9223;DHT22;7557;51.698;3.942;2023-08-30T13:20:54;18.50;99.90
9223;DHT22;7557;51.698;3.942;2023-08-30T13:23:21;18.60;99.90
9223;DHT22;7557;51.698;3.942;2023-08-30T13:25:48;18.60;99.90
9223;DHT22;7557;51.698;3.942;2023-08-30T13:28:15;18.50;99.90
9223;DHT22;7557;51.698;3.942;2023-08-30T13:30:46;18.40;99.90
9223;DHT22;7557;51.698;3.942;2023-08-30T13:33:17;18.30;99.90
9223;DHT22;7557;51.698;3.942;2023-08-30T13:35:49;18.30;99.90
9223;DHT22;7557;51.698;3.942;2023-08-30T13:38:17;18.30;99.90
9223;DHT22;7557;51.698;3.942;2023-08-30T13:40:44;18.30;99.90
9223;DHT22;7557;51.698;3.942;2023-08-30T13:43:12;18.20;99.90
9223;DHT22;7557;51.698;3.942;2023-08-30T13:45:39;18.10;99.90
9223;DHT22;7557;51.698;3.942;2023-08-30T13:48:06;18.20;99.90
9223;DHT22;7557;51.698;3.942;2023-08-30T13:50:42;18.40;99.90
9223;DHT22;7557;51.698;3.942;2023-08-30T13:53:09;18.60;99.90
9223;DHT22;7557;51.698;3.942;2023-08-30T13:55:37;18.70;99.90
9223;DHT22;7557;51.698;3.942;2023-08-30T13:58:05;18.80;99.90
9223;DHT22;7557;51.698;3.942;2023-08-30T14:00:32;18.80;99.90
9223;DHT22;7557;51.698;3.942;2023-08-30T14:02:59;18.80;99.90
9223;DHT22;7557;51.698;3.942;2023-08-30T14:05:27;18.70;99.90
9223;DHT22;7557;51.698;3.942;2023-08-30T14:07:56;18.70;99.90
9223;DHT22;7557;51.698;3.942;2023-08-30T14:10:23;18.60;99.90
9223;DHT22;7557;51.698;3.942;2023-08-30T14:12:51;18.60;99.90
9223;DHT22;7557;51.698;3.942;2023-08-30T14:15:18;18.60;99.90
9223;DHT22;7557;51.698;3.942;2023-08-30T14:17:45;18.60;99.90
9223;DHT22;7557;51.698;3.942;2023-08-30T14:20:13;18.70;99.90
9223;DHT22;7557;51.698;3.942;2023-08-30T14:22:40;18.70;99.90
9223;DHT22;7557;51.698;3.942;2023-08-30T14:25:09;18.70;99.90
9223;DHT22;7557;51.698;3.942;2023-08-30T14:27:38;18.60;99.90
9223;DHT22;7557;51.698;3.942;2023-08-30T14:30:07;18.60;99.90
9223;DHT22;7557;51.698;3.942;2023-08-30T14:32:34;18.60;99.90
9223;DHT22;7557;51.698;3.942;2023-08-30T14:35:03;18.60;99.90
9223;DHT22;7557;51.698;3.942;2023-08-30T14:37:30;18.70;99.90
9223;DHT22;7557;51.698;3.942;2023-08-30T14:40:00;18.80;99.90
9223;DHT22;7557;51.698;3.942;2023-08-30T14:42:31;18.80;99.90
9223;DHT22;7557;51.698;3.942;2023-08-30T14:44:58;18.80;99.90
9223;DHT22;7557;51.698;3.942;2023-08-30T14:47:26;18.80;99.90
9223;DHT22;7557;51.698;3.942;2023-08-30T14:49:55;18.70;99.90
9223;DHT22;7557;51.698;3.942;2023-08-30T14:52:23;18.70;99.90
9223;DHT22;7557;51.698;3.942;2023-08-30T14:54:50;18.60;99.90
9223;DHT22;7557;51.698;3.942;2023-08-30T14:57:17;18.50;99.90
9223;DHT22;7557;51.698;3.942;2023-08-30T14:59:46;18.40;99.90
9223;DHT22;7557;51.698;3.942;2023-08-30T15:02:14;18.40;99.90
9223;DHT22;7557;51.698;3.942;2023-08-30T15:04:41;18.50;99.90
9223;DHT22;7557;51.698;3.942;2023-08-30T15:07:08;18.50;99.90
9223;DHT22;7557;51.698;3.942;2023-08-30T15:09:35;18.50;99.90
9223;DHT22;7557;51.698;3.942;2023-08-30T15:12:03;18.60;99.90
9223;DHT22;7557;51.698;3.942;2023-08-30T15:14:31;18.80;99.90
9223;DHT22;7557;51.698;3.942;2023-08-30T15:17:01;18.80;99.90
9223;DHT22;7557;51.698;3.942;2023-08-30T15:19:29;18.90;99.90
9223;DHT22;7557;51.698;3.942;2023-08-30T15:21:56;18.90;99.90
9223;DHT22;7557;51.698;3.942;2023-08-30T15:24:24;18.90;99.90
9223;DHT22;7557;51.698;3.942;2023-08-30T15:26:51;18.90;99.90
9223;DHT22;7557;51.698;3.942;2023-08-30T15:29:18;19.00;99.90
9223;DHT22;7557;51.698;3.942;2023-08-30T15:31:48;19.00;99.90
9223;DHT22;7557;51.698;3.942;2023-08-30T15:34:20;19.00;99.90
9223;DHT22;7557;51.698;3.942;2023-08-30T15:36:48;18.80;99.90
9223;DHT22;7557;51.698;3.942;2023-08-30T15:39:15;18.70;99.90
9223;DHT22;7557;51.698;3.942;2023-08-30T15:41:43;18.70;99.90
9223;DHT22;7557;51.698;3.942;2023-08-30T15:44:12;18.70;99.90
9223;DHT22;7557;51.698;3.942;2023-08-30T15:46:42;18.80;99.90
9223;DHT22;7557;51.698;3.942;2023-08-30T15:49:10;18.70;99.90
9223;DHT22;7557;51.698;3.942;2023-08-30T15:51:38;18.70;99.90
9223;DHT22;7557;51.698;3.942;2023-08-30T15:54:06;18.60;99.90
9223;DHT22;7557;51.698;3.942;2023-08-30T15:56:35;18.50;99.90
9223;DHT22;7557;51.698;3.942;2023-08-30T15:59:03;18.50;99.90
9223;DHT22;7557;51.698;3.942;2023-08-30T16:01:30;18.70;99.90
9223;DHT22;7557;51.698;3.942;2023-08-30T16:03:58;18.80;99.90
9223;DHT22;7557;51.698;3.942;2023-08-30T16:06:25;18.80;99.90
9223;DHT22;7557;51.698;3.942;2023-08-30T16:08:54;18.80;99.90
9223;DHT22;7557;51.698;3.942;2023-08-30T16:11:21;18.80;99.90
9223;DHT22;7557;51.698;3.942;2023-08-30T16:13:49;18.80;99.90